Time;durP1;ratioP1;P1;durP2;ratioP2;P2;SDS_P1;SDS_P2;PMS_P1;PMS_P2;Temp;Humidity;BMP_temperature;BMP_pressure;BME280_temperature;BME280_humidity;BME280_pressure;Samples;Min_cycle;Max_cycle;Signal;HPM_P1;HPM_P2
2022/01/09 00:00:59;;;;;;;42.70;22.00;;;;;;;;;;5054491;28;20048;-69
2022/01/09 00:03:25;;;;;;;41.60;23.10;;;;;;;;;;5073422;28;20048;-68
2022/01/09 00:05:52;;;;;;;47.85;25.48;;;;;;;;;;5073614;28;20108;-71
2022/01/09 00:08:18;;;;;;;50.15;25.60;;;;;;;;;;5062344;28;20021;-68
2022/01/09 00:10:47;;;;;;;46.95;25.58;;;;;;;;;;5053840;28;20458;-69
2022/01/09 00:13:13;;;;;;;46.08;25.98;;;;;;;;;;5073374;28;20025;-70
2022/01/09 00:15:40;;;;;;;55.20;28.33;;;;;;;;;;5073134;28;20061;-68
2022/01/09 00:18:06;;;;;;;52.55;27.05;;;;;;;;;;5045057;28;20493;-71
2022/01/09 00:20:32;;;;;;;52.88;28.52;;;;;;;;;;5072464;28;20056;-70
2022/01/09 00:22:58;;;;;;;55.58;29.08;;;;;;;;;;5073059;28;20020;-69
2022/01/09 00:25:27;;;;;;;54.45;29.75;;;;;;;;;;5073123;28;20020;-70
2022/01/09 00:27:54;;;;;;;56.15;31.02;;;;;;;;;;5054763;28;20036;-70
2022/01/09 00:30:21;;;;;;;56.17;30.15;;;;;;;;;;5054801;28;20111;-68
2022/01/09 00:32:48;;;;;;;67.60;33.95;;;;;;;;;;5054939;28;20020;-71
2022/01/09 00:35:14;;;;;;;62.50;32.58;;;;;;;;;;5073416;28;20103;-71
2022/01/09 00:37:41;;;;;;;69.85;34.10;;;;;;;;;;5055084;28;20047;-69
2022/01/09 00:40:08;;;;;;;68.38;36.03;;;;;;;;;;5073070;28;20031;-70
2022/01/09 00:42:34;;;;;;;77.28;37.05;;;;;;;;;;5072891;28;20036;-71
2022/01/09 00:45:00;;;;;;;74.38;36.17;;;;;;;;;;5072812;28;20432;-70
2022/01/09 00:47:27;;;;;;;65.22;34.30;;;;;;;;;;5073234;28;20048;-70
2022/01/09 00:49:53;;;;;;;74.30;37.33;;;;;;;;;;5073215;28;20074;-70
2022/01/09 00:52:19;;;;;;;74.00;36.17;;;;;;;;;;5054973;28;20047;-68
2022/01/09 00:54:45;;;;;;;64.30;34.13;;;;;;;;;;5072890;28;20028;-69
2022/01/09 00:57:11;;;;;;;64.40;33.67;;;;;;;;;;5073182;28;20415;-69
2022/01/09 00:59:38;;;;;;;65.15;33.30;;;;;;;;;;5072591;28;20024;-68
2022/01/09 01:02:04;;;;;;;65.82;32.33;;;;;;;;;;5072342;28;20596;-69
2022/01/09 01:04:30;;;;;;;65.10;35.03;;;;;;;;;;5054781;28;20491;-69
2022/01/09 01:06:57;;;;;;;69.35;37.13;;;;;;;;;;5054821;28;20028;-69
2022/01/09 01:09:24;;;;;;;69.70;36.13;;;;;;;;;;5072771;28;20029;-67
2022/01/09 01:11:51;;;;;;;70.80;38.13;;;;;;;;;;5054736;28;20032;-68
2022/01/09 01:14:22;;;;;;;77.35;37.95;;;;;;;;;;5076613;28;20028;-67
2022/01/09 01:16:48;;;;;;;75.07;39.35;;;;;;;;;;5058851;28;20056;-69
2022/01/09 01:19:14;;;;;;;72.82;38.33;;;;;;;;;;5058677;28;20074;-69
2022/01/09 01:21:41;;;;;;;73.30;37.65;;;;;;;;;;5076367;28;20696;-68
2022/01/09 01:24:07;;;;;;;72.97;36.28;;;;;;;;;;5076668;28;20111;-68
2022/01/09 01:26:33;;;;;;;60.75;32.65;;;;;;;;;;5076321;28;20469;-68
2022/01/09 01:28:59;;;;;;;64.43;33.38;;;;;;;;;;5076508;28;20056;-68
2022/01/09 01:31:26;;;;;;;58.13;31.25;;;;;;;;;;5076496;28;20441;-68
2022/01/09 01:33:52;;;;;;;58.55;32.00;;;;;;;;;;5076440;28;20021;-68
2022/01/09 01:36:18;;;;;;;60.05;31.45;;;;;;;;;;5058354;28;20051;-67
2022/01/09 01:38:44;;;;;;;102.28;47.08;;;;;;;;;;5076340;28;20105;-69
2022/01/09 01:41:10;;;;;;;83.88;39.97;;;;;;;;;;5076201;28;20115;-68
2022/01/09 01:43:37;;;;;;;60.00;31.17;;;;;;;;;;5076172;28;20029;-68
2022/01/09 01:46:03;;;;;;;77.93;37.63;;;;;;;;;;5058228;28;20028;-67
2022/01/09 01:48:30;;;;;;;98.45;43.28;;;;;;;;;;5076169;28;20024;-69
2022/01/09 01:50:56;;;;;;;79.90;35.92;;;;;;;;;;5076077;28;20039;-67
2022/01/09 01:53:24;;;;;;;115.03;49.33;;;;;;;;;;5076056;28;20054;-67
2022/01/09 01:55:55;;;;;;;100.55;41.83;;;;;;;;;;5076033;28;20415;-66
2022/01/09 01:58:22;;;;;;;73.68;37.08;;;;;;;;;;5076056;28;20069;-66
2022/01/09 02:00:49;;;;;;;102.80;45.88;;;;;;;;;;5075328;28;20916;-67
2022/01/09 02:03:15;;;;;;;83.25;39.88;;;;;;;;;;5075905;28;20473;-68
2022/01/09 02:05:42;;;;;;;72.43;36.80;;;;;;;;;;5057837;28;20029;-69
2022/01/09 02:08:09;;;;;;;70.15;34.30;;;;;;;;;;5075495;28;20530;-68
2022/01/09 02:10:40;;;;;;;52.10;26.05;;;;;;;;;;5075472;28;20381;-68
2022/01/09 02:13:07;;;;;;;61.10;28.25;;;;;;;;;;5075732;28;20020;-67
2022/01/09 02:15:37;;;;;;;44.20;23.77;;;;;;;;;;5075719;28;20024;-68
2022/01/09 02:18:05;;;;;;;58.70;27.35;;;;;;;;;;5057564;28;20484;-67
2022/01/09 02:20:32;;;;;;;55.60;27.55;;;;;;;;;;5057470;28;20028;-67
2022/01/09 02:22:59;;;;;;;50.30;26.80;;;;;;;;;;5075060;28;20029;-68
2022/01/09 02:25:26;;;;;;;48.00;24.92;;;;;;;;;;5075522;28;20530;-68
2022/01/09 02:27:52;;;;;;;45.42;23.30;;;;;;;;;;5075487;28;20028;-68
2022/01/09 02:30:19;;;;;;;52.55;26.67;;;;;;;;;;5075413;28;20023;-70
2022/01/09 02:32:45;;;;;;;52.13;26.55;;;;;;;;;;5075362;28;20024;-70
2022/01/09 02:35:11;;;;;;;44.33;23.30;;;;;;;;;;5057362;28;20085;-69
2022/01/09 02:37:37;;;;;;;53.60;24.67;;;;;;;;;;5075262;28;20024;-70
2022/01/09 02:40:05;;;;;;;44.13;23.70;;;;;;;;;;5057250;28;20139;-68
2022/01/09 02:42:32;;;;;;;40.00;23.63;;;;;;;;;;5075077;28;20077;-70
2022/01/09 02:44:59;;;;;;;47.42;26.63;;;;;;;;;;5075131;28;20029;-67
2022/01/09 02:47:28;;;;;;;51.28;25.27;;;;;;;;;;5057079;28;20426;-68
2022/01/09 02:49:56;;;;;;;46.25;25.77;;;;;;;;;;5075052;28;20020;-71
2022/01/09 02:52:32;;;;;;;50.95;25.52;;;;;;;;;;5074980;28;20025;-70
2022/01/09 02:55:12;;;;;;;51.42;27.73;;;;;;;;;;5056932;28;20481;-69
2022/01/09 02:57:46;;;;;;;55.75;26.17;;;;;;;;;;5074929;28;20040;-67
2022/01/09 03:00:17;;;;;;;46.45;24.95;;;;;;;;;;5074889;28;20036;-68
2022/01/09 03:02:44;;;;;;;46.05;24.83;;;;;;;;;;5056326;28;20059;-72
2022/01/09 03:05:11;;;;;;;48.00;24.92;;;;;;;;;;5074720;28;20031;-67
2022/01/09 03:07:38;;;;;;;45.90;25.23;;;;;;;;;;5056652;28;20078;-68
2022/01/09 03:10:05;;;;;;;46.42;24.90;;;;;;;;;;5056701;28;20454;-69
2022/01/09 03:12:31;;;;;;;43.22;23.65;;;;;;;;;;5074590;28;20029;-70
2022/01/09 03:14:58;;;;;;;44.70;23.95;;;;;;;;;;5074526;28;20032;-67
2022/01/09 03:17:24;;;;;;;49.03;24.35;;;;;;;;;;5074238;28;20033;-70
2022/01/09 03:19:50;;;;;;;50.60;26.45;;;;;;;;;;5074424;28;20437;-68
2022/01/09 03:22:16;;;;;;;55.47;26.13;;;;;;;;;;5056312;28;20036;-68
2022/01/09 03:24:43;;;;;;;44.88;24.27;;;;;;;;;;5074333;28;20063;-69
2022/01/09 03:27:12;;;;;;;46.55;24.92;;;;;;;;;;5074303;28;20029;-69
2022/01/09 03:29:39;;;;;;;55.28;27.10;;;;;;;;;;5056260;28;20021;-69
2022/01/09 03:32:06;;;;;;;53.42;27.05;;;;;;;;;;5074161;28;20116;-68
2022/01/09 03:34:33;;;;;;;46.50;25.35;;;;;;;;;;5073795;28;20056;-70
2022/01/09 03:36:59;;;;;;;48.28;25.65;;;;;;;;;;5055577;28;20031;-71
2022/01/09 03:39:25;;;;;;;47.45;24.30;;;;;;;;;;5056128;28;20111;-69
2022/01/09 03:41:54;;;;;;;48.38;24.10;;;;;;;;;;5073934;28;20036;-70
2022/01/09 03:44:21;;;;;;;49.20;25.45;;;;;;;;;;5073977;28;20025;-70
2022/01/09 03:46:47;;;;;;;48.67;26.83;;;;;;;;;;5056012;28;20393;-70
2022/01/09 03:49:13;;;;;;;48.05;25.35;;;;;;;;;;5055860;28;20025;-69
2022/01/09 03:51:41;;;;;;;46.45;26.15;;;;;;;;;;5074099;28;20530;-70
2022/01/09 03:54:08;;;;;;;48.95;26.50;;;;;;;;;;5073703;28;20370;-69
2022/01/09 03:56:34;;;;;;;65.07;30.42;;;;;;;;;;5055510;28;20032;-69
2022/01/09 03:59:00;;;;;;;49.47;26.05;;;;;;;;;;5055695;28;20024;-70
2022/01/09 04:01:27;;;;;;;47.38;26.75;;;;;;;;;;5073440;28;20048;-68
2022/01/09 04:03:53;;;;;;;47.55;25.60;;;;;;;;;;5073511;28;20024;-70
2022/01/09 04:06:20;;;;;;;48.13;27.20;;;;;;;;;;5073579;28;20028;-71
2022/01/09 04:08:47;;;;;;;49.45;26.30;;;;;;;;;;5055500;28;20401;-69
2022/01/09 04:11:16;;;;;;;53.22;28.98;;;;;;;;;;5055406;28;20040;-68
2022/01/09 04:13:43;;;;;;;54.03;27.83;;;;;;;;;;5073487;28;20036;-69
2022/01/09 04:16:09;;;;;;;59.92;30.50;;;;;;;;;;5073688;28;20116;-68
2022/01/09 04:18:35;;;;;;;59.05;29.85;;;;;;;;;;5055427;28;20020;-68
2022/01/09 04:21:01;;;;;;;55.13;28.55;;;;;;;;;;5055273;28;20021;-68
2022/01/09 04:23:27;;;;;;;61.22;30.77;;;;;;;;;;5055290;28;20453;-67
2022/01/09 04:25:54;;;;;;;61.10;30.42;;;;;;;;;;5073519;28;20028;-66
2022/01/09 04:28:20;;;;;;;64.95;31.98;;;;;;;;;;5073233;28;20036;-68
2022/01/09 04:30:46;;;;;;;69.50;36.22;;;;;;;;;;5073514;28;20032;-68
2022/01/09 04:33:13;;;;;;;60.85;32.45;;;;;;;;;;5073175;28;20109;-68
2022/01/09 04:35:40;;;;;;;68.28;32.58;;;;;;;;;;5073135;28;20025;-67
2022/01/09 04:38:06;;;;;;;65.90;34.85;;;;;;;;;;5055038;28;20028;-67
2022/01/09 04:40:32;;;;;;;73.35;37.88;;;;;;;;;;5055004;28;20024;-69
2022/01/09 04:43:01;;;;;;;74.88;37.10;;;;;;;;;;5073051;28;20031;-68
2022/01/09 04:45:28;;;;;;;80.30;42.15;;;;;;;;;;5073011;28;20074;-68
2022/01/09 04:47:58;;;;;;;99.55;48.05;;;;;;;;;;5072854;28;20048;-67
2022/01/09 04:50:26;;;;;;;84.38;41.63;;;;;;;;;;5054957;28;20021;-68
2022/01/09 04:53:02;;;;;;;87.90;42.55;;;;;;;;;;5072937;28;20029;-67
2022/01/09 04:55:32;;;;;;;104.55;49.50;;;;;;;;;;5073024;28;20039;-68
2022/01/09 04:57:58;;;;;;;89.03;43.75;;;;;;;;;;5073193;28;20134;-67
2022/01/09 05:00:24;;;;;;;88.50;44.35;;;;;;;;;;5072617;28;20067;-66
2022/01/09 05:02:50;;;;;;;90.47;45.47;;;;;;;;;;5072360;28;20148;-68
2022/01/09 05:05:17;;;;;;;106.03;51.78;;;;;;;;;;5072856;28;20032;-66
2022/01/09 05:07:44;;;;;;;112.22;56.88;;;;;;;;;;5054810;28;20143;-66
2022/01/09 05:10:10;;;;;;;107.00;52.38;;;;;;;;;;5072797;28;20111;-67
2022/01/09 05:12:37;;;;;;;125.43;61.00;;;;;;;;;;5072731;28;20043;-68
2022/01/09 05:15:04;;;;;;;140.05;66.05;;;;;;;;;;5072766;28;20029;-67
2022/01/09 05:17:30;;;;;;;166.52;76.85;;;;;;;;;;5072781;28;20024;-67
2022/01/09 05:19:57;;;;;;;171.48;82.85;;;;;;;;;;5054416;28;20037;-67
2022/01/09 05:22:27;;;;;;;147.00;71.82;;;;;;;;;;5072633;28;20040;-68
2022/01/09 05:24:54;;;;;;;131.30;63.42;;;;;;;;;;5072629;28;20441;-69
2022/01/09 05:27:24;;;;;;;129.57;61.78;;;;;;;;;;5054602;28;20027;-68
2022/01/09 05:29:50;;;;;;;131.30;63.85;;;;;;;;;;5054641;28;20093;-67
2022/01/09 05:32:17;;;;;;;120.10;60.60;;;;;;;;;;5072524;28;20032;-68
2022/01/09 05:34:43;;;;;;;125.07;63.33;;;;;;;;;;5054426;28;20115;-67
2022/01/09 05:37:09;;;;;;;128.38;63.63;;;;;;;;;;5072574;28;20473;-67
2022/01/09 05:39:36;;;;;;;130.27;65.97;;;;;;;;;;5072496;28;20056;-68
2022/01/09 05:42:03;;;;;;;143.13;72.97;;;;;;;;;;5072437;28;20036;-67
2022/01/09 05:44:31;;;;;;;132.00;65.90;;;;;;;;;;5072471;28;20059;-68
2022/01/09 05:46:58;;;;;;;132.27;67.65;;;;;;;;;;5054155;28;20024;-68
2022/01/09 05:49:24;;;;;;;157.93;80.35;;;;;;;;;;5054402;28;20124;-68
2022/01/09 05:51:50;;;;;;;141.82;72.93;;;;;;;;;;5072409;28;20138;-68
2022/01/09 05:54:17;;;;;;;117.63;61.42;;;;;;;;;;5072351;28;20029;-68
2022/01/09 05:56:43;;;;;;;159.48;78.57;;;;;;;;;;5072387;28;20112;-68
2022/01/09 05:59:09;;;;;;;148.68;76.03;;;;;;;;;;5074372;28;20089;-68
2022/01/09 06:01:36;;;;;;;124.80;63.67;;;;;;;;;;5075624;28;20056;-67
2022/01/09 06:04:03;;;;;;;117.20;59.10;;;;;;;;;;5075889;28;20101;-67
2022/01/09 06:06:29;;;;;;;115.53;58.47;;;;;;;;;;5057844;28;20473;-68
2022/01/09 06:08:55;;;;;;;106.22;55.90;;;;;;;;;;5076095;28;20038;-67
2022/01/09 06:11:21;;;;;;;131.55;65.90;;;;;;;;;;5075772;28;20032;-68
2022/01/09 06:13:48;;;;;;;121.13;61.65;;;;;;;;;;5075708;28;20534;-67
2022/01/09 06:16:14;;;;;;;157.35;77.07;;;;;;;;;;5075717;28;20025;-66
2022/01/09 06:18:40;;;;;;;199.48;94.20;;;;;;;;;;5075583;28;20025;-66
2022/01/09 06:21:06;;;;;;;183.27;88.00;;;;;;;;;;5075488;28;20036;-66
2022/01/09 06:23:33;;;;;;;140.18;72.65;;;;;;;;;;5057499;28;20546;-66
2022/01/09 06:25:59;;;;;;;146.30;70.70;;;;;;;;;;5075713;28;20115;-66
2022/01/09 06:28:25;;;;;;;143.30;72.22;;;;;;;;;;5075152;28;20089;-67
2022/01/09 06:30:51;;;;;;;145.63;72.18;;;;;;;;;;5057403;28;20035;-67
2022/01/09 06:33:18;;;;;;;197.23;93.78;;;;;;;;;;5075351;28;20024;-67
2022/01/09 06:35:44;;;;;;;217.52;102.90;;;;;;;;;;5075273;28;20182;-66
2022/01/09 06:38:11;;;;;;;236.68;109.00;;;;;;;;;;5075349;28;20020;-66
2022/01/09 06:40:37;;;;;;;209.65;100.57;;;;;;;;;;5057158;28;20492;-66
2022/01/09 06:43:04;;;;;;;157.90;77.07;;;;;;;;;;5075182;28;20037;-66
2022/01/09 06:45:30;;;;;;;183.48;85.10;;;;;;;;;;5075031;28;20035;-66
2022/01/09 06:48:01;;;;;;;165.25;79.55;;;;;;;;;;5074889;28;20071;-67
2022/01/09 06:50:27;;;;;;;152.40;76.05;;;;;;;;;;5057090;28;20028;-68
2022/01/09 06:52:53;;;;;;;166.63;77.88;;;;;;;;;;5056946;28;20028;-67
2022/01/09 06:55:20;;;;;;;159.45;78.90;;;;;;;;;;5074924;28;20035;-67
2022/01/09 06:57:46;;;;;;;163.32;76.22;;;;;;;;;;5074895;28;20481;-69
2022/01/09 07:00:13;;;;;;;157.00;76.32;;;;;;;;;;5056805;28;20021;-67
2022/01/09 07:02:40;;;;;;;165.73;78.55;;;;;;;;;;5074309;28;20128;-67
2022/01/09 07:05:06;;;;;;;154.63;77.15;;;;;;;;;;5074770;28;20060;-67
2022/01/09 07:07:32;;;;;;;163.50;79.63;;;;;;;;;;5074676;28;20021;-67
2022/01/09 07:09:59;;;;;;;188.18;90.93;;;;;;;;;;5072070;28;20426;-69
2022/01/09 07:12:25;;;;;;;229.00;104.03;;;;;;;;;;5056057;28;20033;-69
2022/01/09 07:14:51;;;;;;;252.43;114.60;;;;;;;;;;5074473;28;20032;-68
2022/01/09 07:17:17;;;;;;;280.92;127.15;;;;;;;;;;5056149;28;20453;-66
2022/01/09 07:19:44;;;;;;;290.15;138.07;;;;;;;;;;5074394;28;20029;-67
2022/01/09 07:22:10;;;;;;;243.73;113.25;;;;;;;;;;5074161;28;20171;-69
2022/01/09 07:24:37;;;;;;;221.70;106.22;;;;;;;;;;5074147;28;20037;-67
2022/01/09 07:27:04;;;;;;;208.30;100.78;;;;;;;;;;5074265;28;20457;-68
2022/01/09 07:29:30;;;;;;;196.60;94.03;;;;;;;;;;5073880;28;20544;-68
2022/01/09 07:31:56;;;;;;;167.40;85.53;;;;;;;;;;5056200;28;20033;-68
2022/01/09 07:34:22;;;;;;;142.98;72.80;;;;;;;;;;5074161;28;20070;-67
2022/01/09 07:36:48;;;;;;;126.97;61.72;;;;;;;;;;5073975;28;20380;-66
2022/01/09 07:39:15;;;;;;;106.85;56.13;;;;;;;;;;5073407;28;20021;-66
2022/01/09 07:41:42;;;;;;;106.47;55.67;;;;;;;;;;5073808;28;20600;-68
2022/01/09 07:44:08;;;;;;;95.85;52.17;;;;;;;;;;5055914;28;20354;-69
2022/01/09 07:46:35;;;;;;;94.90;50.17;;;;;;;;;;5073782;28;20115;-68
2022/01/09 07:49:01;;;;;;;82.90;44.13;;;;;;;;;;5073990;28;20103;-67
2022/01/09 07:51:27;;;;;;;77.05;42.85;;;;;;;;;;5073393;28;20052;-65
2022/01/09 07:53:53;;;;;;;83.03;43.60;;;;;;;;;;5073323;28;20441;-67
2022/01/09 07:56:19;;;;;;;82.40;45.13;;;;;;;;;;5073428;28;20044;-66
2022/01/09 07:58:46;;;;;;;88.05;44.72;;;;;;;;;;5073607;28;20029;-68
2022/01/09 08:01:12;;;;;;;88.38;44.20;;;;;;;;;;5072970;28;20481;-70
2022/01/09 08:03:38;;;;;;;86.80;44.58;;;;;;;;;;5072644;28;20044;-67
2022/01/09 08:06:04;;;;;;;87.25;42.63;;;;;;;;;;5071703;28;20358;-66
2022/01/09 08:08:30;;;;;;;84.25;43.30;;;;;;;;;;5072250;28;20107;-68
2022/01/09 08:10:57;;;;;;;80.72;41.25;;;;;;;;;;5054241;28;20545;-67
2022/01/09 08:13:23;;;;;;;75.72;40.75;;;;;;;;;;5071988;28;20164;-67
2022/01/09 08:15:49;;;;;;;69.85;37.17;;;;;;;;;;5053922;28;20115;-67
2022/01/09 08:18:15;;;;;;;66.72;36.00;;;;;;;;;;5072293;28;20090;-66
2022/01/09 08:20:41;;;;;;;73.55;38.22;;;;;;;;;;5072690;28;20038;-67
2022/01/09 08:23:08;;;;;;;63.63;35.67;;;;;;;;;;5072862;28;20036;-67
2022/01/09 08:25:34;;;;;;;62.03;34.28;;;;;;;;;;5055303;28;20047;-67
2022/01/09 08:28:00;;;;;;;65.32;35.50;;;;;;;;;;5073548;28;20059;-66
2022/01/09 08:30:26;;;;;;;64.18;34.78;;;;;;;;;;5055187;28;20032;-68
2022/01/09 08:32:53;;;;;;;65.15;33.17;;;;;;;;;;5055165;28;20495;-67
2022/01/09 08:35:20;;;;;;;70.25;34.95;;;;;;;;;;5073078;28;20477;-69
2022/01/09 08:37:47;;;;;;;68.07;36.08;;;;;;;;;;5073160;28;20032;-67
2022/01/09 08:40:17;;;;;;;56.00;29.38;;;;;;;;;;5073038;28;20029;-68
2022/01/09 08:42:43;;;;;;;54.22;30.77;;;;;;;;;;5073081;28;20109;-67
2022/01/09 08:45:09;;;;;;;62.58;33.88;;;;;;;;;;5073005;28;20053;-69
2022/01/09 08:47:38;;;;;;;55.65;28.60;;;;;;;;;;5073353;28;20096;-68
2022/01/09 08:50:04;;;;;;;53.50;29.75;;;;;;;;;;5070736;28;20102;-68
2022/01/09 08:52:31;;;;;;;52.35;29.70;;;;;;;;;;5072200;28;20032;-67
2022/01/09 08:54:57;;;;;;;47.85;28.50;;;;;;;;;;5054577;28;20115;-67
2022/01/09 08:57:25;;;;;;;47.88;27.33;;;;;;;;;;5054885;28;20123;-68
2022/01/09 08:59:51;;;;;;;52.38;27.55;;;;;;;;;;5072254;28;20405;-68
2022/01/09 09:02:17;;;;;;;57.83;30.83;;;;;;;;;;5072678;28;20052;-69
2022/01/09 09:04:44;;;;;;;57.25;30.73;;;;;;;;;;5054692;28;20111;-69
2022/01/09 09:07:10;;;;;;;67.65;35.67;;;;;;;;;;5054701;28;20124;-67
2022/01/09 09:09:37;;;;;;;68.25;35.15;;;;;;;;;;5054607;28;20453;-69
2022/01/09 09:12:04;;;;;;;66.32;34.70;;;;;;;;;;5072677;28;20033;-68
2022/01/09 09:14:30;;;;;;;65.63;34.90;;;;;;;;;;5054651;28;20487;-67
2022/01/09 09:16:56;;;;;;;65.80;32.05;;;;;;;;;;5071981;28;20039;-69
2022/01/09 09:19:23;;;;;;;57.10;31.50;;;;;;;;;;5072334;28;20032;-72
2022/01/09 09:21:49;;;;;;;54.72;29.90;;;;;;;;;;5054528;28;20028;-69
2022/01/09 09:24:15;;;;;;;55.30;29.88;;;;;;;;;;5072657;28;20056;-70
2022/01/09 09:26:42;;;;;;;45.83;26.85;;;;;;;;;;5054596;28;20044;-68
2022/01/09 09:29:08;;;;;;;46.13;27.45;;;;;;;;;;5072647;28;20047;-69
2022/01/09 09:31:34;;;;;;;46.28;28.08;;;;;;;;;;5072870;28;20108;-71
2022/01/09 09:34:01;;;;;;;42.33;25.50;;;;;;;;;;5056217;28;20123;-71
2022/01/09 09:36:28;;;;;;;49.13;27.05;;;;;;;;;;5076209;28;20020;-71
2022/01/09 09:38:54;;;;;;;49.20;25.85;;;;;;;;;;5058368;28;20103;-70
2022/01/09 09:41:24;;;;;;;42.50;24.92;;;;;;;;;;5058271;28;20037;-70
2022/01/09 09:43:51;;;;;;;45.67;25.65;;;;;;;;;;5058277;28;20028;-71
2022/01/09 09:46:17;;;;;;;52.72;28.73;;;;;;;;;;5076184;28;20032;-70
2022/01/09 09:48:43;;;;;;;44.20;26.70;;;;;;;;;;5076097;28;20024;-71
2022/01/09 09:51:09;;;;;;;46.83;26.30;;;;;;;;;;5058123;28;20070;-72
2022/01/09 09:53:35;;;;;;;39.45;23.52;;;;;;;;;;5075741;28;20470;-71
2022/01/09 09:56:02;;;;;;;39.88;24.40;;;;;;;;;;5058232;28;20380;-71
2022/01/09 09:58:28;;;;;;;41.28;24.70;;;;;;;;;;5075875;28;20033;-71
2022/01/09 10:00:55;;;;;;;39.60;24.75;;;;;;;;;;5074856;28;20020;-71
2022/01/09 10:03:29;;;;;;;40.25;23.88;;;;;;;;;;5056492;28;20051;-71
2022/01/09 10:05:55;;;;;;;47.05;27.35;;;;;;;;;;5074553;28;20028;-71
2022/01/09 10:08:21;;;;;;;92.05;44.00;;;;;;;;;;5057685;28;20420;-70
2022/01/09 10:10:47;;;;;;;52.08;29.40;;;;;;;;;;5057188;28;20027;-70
2022/01/09 10:13:15;;;;;;;52.20;30.05;;;;;;;;;;5053227;28;20230;-70
2022/01/09 10:15:49;;;;;;;50.45;27.65;;;;;;;;;;5073910;28;20098;-69
2022/01/09 10:18:35;;;;;;;84.93;42.35;;;;;;;;;;5075404;28;20017;-71
2022/01/09 10:21:05;;;;;;;34.40;22.63;;;;;;;;;;5075260;28;20021;-69
2022/01/09 10:23:31;;;;;;;47.15;25.73;;;;;;;;;;5075532;28;20021;-71
2022/01/09 10:26:09;;;;;;;64.88;34.95;;;;;;;;;;5057398;28;20028;-72
2022/01/09 10:28:39;;;;;;;58.17;31.50;;;;;;;;;;5057294;28;20455;-68
2022/01/09 10:31:14;;;;;;;47.55;26.20;;;;;;;;;;5056999;28;20159;-75
2022/01/09 10:33:40;;;;;;;47.17;25.23;;;;;;;;;;5057165;28;20025;-70
2022/01/09 10:36:09;;;;;;;40.75;22.77;;;;;;;;;;5057251;28;20047;-68
2022/01/09 10:38:35;;;;;;;59.83;32.42;;;;;;;;;;5057230;28;20468;-70
2022/01/09 10:41:03;;;;;;;88.10;40.88;;;;;;;;;;5074722;28;20376;-73
2022/01/09 10:43:41;;;;;;;44.10;24.52;;;;;;;;;;5075066;28;20042;-70
2022/01/09 10:46:07;;;;;;;36.15;21.50;;;;;;;;;;5074583;28;20027;-72
2022/01/09 10:48:39;;;;;;;84.05;41.28;;;;;;;;;;5056700;28;20027;-72
2022/01/09 10:51:07;;;;;;;61.97;32.97;;;;;;;;;;5056888;28;20024;-72
2022/01/09 10:53:40;;;;;;;70.93;36.30;;;;;;;;;;5074467;28;20017;-70
2022/01/09 10:56:20;;;;;;;43.58;24.08;;;;;;;;;;5056885;28;20111;-68
2022/01/09 10:58:46;;;;;;;52.30;30.00;;;;;;;;;;5056833;28;20032;-70
2022/01/09 11:01:20;;;;;;;45.53;28.48;;;;;;;;;;5074718;28;20064;-69
2022/01/09 11:03:48;;;;;;;50.80;28.98;;;;;;;;;;5056430;28;20113;-72
2022/01/09 11:06:14;;;;;;;44.60;28.33;;;;;;;;;;5056638;28;20035;-73
2022/01/09 11:08:41;;;;;;;73.65;40.63;;;;;;;;;;5074501;28;20377;-70
2022/01/09 11:11:16;;;;;;;63.03;35.75;;;;;;;;;;5074394;28;20381;-71
2022/01/09 11:13:43;;;;;;;51.65;29.30;;;;;;;;;;5074799;28;20031;-72
2022/01/09 11:18:57;;;;;;;40.50;23.00;;;;;;;;;;5074414;28;20039;-70
2022/01/09 11:21:23;;;;;;;42.70;23.40;;;;;;;;;;5055970;28;20481;-71
2022/01/09 11:23:58;;;;;;;56.33;30.73;;;;;;;;;;5074249;28;20027;-70
2022/01/09 11:26:28;;;;;;;46.15;27.45;;;;;;;;;;5056341;28;20021;-72
2022/01/09 11:28:55;;;;;;;38.60;21.38;;;;;;;;;;5073852;28;20095;-70
2022/01/09 11:31:36;;;;;;;45.53;26.35;;;;;;;;;;5056185;28;20528;-68
2022/01/09 11:34:10;;;;;;;55.03;32.33;;;;;;;;;;5074085;28;20064;-70
2022/01/09 11:36:55;;;;;;;43.03;24.92;;;;;;;;;;5072836;28;20028;-71
2022/01/09 11:39:27;;;;;;;42.85;25.35;;;;;;;;;;5062568;28;20031;-69
2022/01/09 11:42:10;;;;;;;35.83;23.08;;;;;;;;;;5073726;28;20047;-71
2022/01/09 11:44:53;;;;;;;46.22;26.60;;;;;;;;;;5073877;28;20024;-71
2022/01/09 11:47:19;;;;;;;48.63;26.42;;;;;;;;;;5073681;28;20040;-67
2022/01/09 11:49:56;;;;;;;40.13;23.63;;;;;;;;;;5073630;28;20457;-69
2022/01/09 11:52:24;;;;;;;41.05;23.65;;;;;;;;;;5071922;28;20087;-70
2022/01/09 11:55:00;;;;;;;41.85;24.35;;;;;;;;;;5073356;28;20033;-72
2022/01/09 11:57:47;;;;;;;40.55;24.27;;;;;;;;;;5072438;28;20036;-67
2022/01/09 12:00:33;;;;;;;50.85;27.23;;;;;;;;;;5073459;28;20025;-69
2022/01/09 12:03:00;;;;;;;43.20;25.73;;;;;;;;;;5072974;28;20059;-69
2022/01/09 12:05:26;;;;;;;44.63;25.35;;;;;;;;;;5055218;28;20029;-68
2022/01/09 12:07:53;;;;;;;40.85;23.58;;;;;;;;;;5055326;28;20470;-72
2022/01/09 12:10:25;;;;;;;41.63;24.58;;;;;;;;;;5073373;28;20028;-71
2022/01/09 12:12:52;;;;;;;41.20;25.35;;;;;;;;;;5073234;28;20025;-72
2022/01/09 12:15:35;;;;;;;42.00;25.00;;;;;;;;;;5073616;28;20430;-71
2022/01/09 12:18:03;;;;;;;40.92;24.42;;;;;;;;;;5055255;28;20029;-73
2022/01/09 12:20:37;;;;;;;41.42;23.20;;;;;;;;;;5073313;28;20017;-71
2022/01/09 12:23:04;;;;;;;44.33;24.73;;;;;;;;;;5055218;28;20117;-70
2022/01/09 12:25:37;;;;;;;47.97;28.00;;;;;;;;;;5073231;28;20465;-70
2022/01/09 12:28:08;;;;;;;44.60;26.88;;;;;;;;;;5072953;28;20394;-72
2022/01/09 12:30:44;;;;;;;45.75;25.70;;;;;;;;;;5055018;28;20024;-68
2022/01/09 12:33:11;;;;;;;47.40;26.75;;;;;;;;;;5054958;28;20024;-70
2022/01/09 12:35:38;;;;;;;48.45;27.10;;;;;;;;;;5071676;28;20111;-69
2022/01/09 12:38:05;;;;;;;50.17;28.58;;;;;;;;;;5071788;28;20035;-67
2022/01/09 12:40:39;;;;;;;48.58;25.65;;;;;;;;;;5072029;28;20028;-67
2022/01/09 12:43:06;;;;;;;59.53;30.60;;;;;;;;;;5073002;28;20031;-66
2022/01/09 12:45:33;;;;;;;42.28;23.08;;;;;;;;;;5070442;28;20032;-67
2022/01/09 12:48:00;;;;;;;37.38;21.88;;;;;;;;;;5072601;28;20457;-68
2022/01/09 12:50:31;;;;;;;42.90;23.08;;;;;;;;;;5054732;28;20036;-67
2022/01/09 12:53:17;;;;;;;33.88;21.35;;;;;;;;;;5072633;28;20036;-67
2022/01/09 12:55:57;;;;;;;37.05;20.33;;;;;;;;;;5073010;28;20031;-66
2022/01/09 12:58:24;;;;;;;36.92;19.38;;;;;;;;;;5054608;28;20067;-67
2022/01/09 13:00:50;;;;;;;31.45;17.80;;;;;;;;;;5054080;28;20021;-67
2022/01/09 13:03:20;;;;;;;31.33;17.45;;;;;;;;;;5049420;28;20045;-68
2022/01/09 13:05:54;;;;;;;38.78;22.90;;;;;;;;;;5051311;28;20029;-68
2022/01/09 13:08:20;;;;;;;38.33;19.88;;;;;;;;;;5054681;28;20029;-67
2022/01/09 13:10:55;;;;;;;30.67;16.30;;;;;;;;;;5056751;28;20029;-67
2022/01/09 13:13:23;;;;;;;27.63;16.15;;;;;;;;;;5055325;28;20033;-66
2022/01/09 13:15:49;;;;;;;30.30;17.10;;;;;;;;;;5056584;28;20132;-68
2022/01/09 13:18:16;;;;;;;44.70;22.33;;;;;;;;;;5056859;28;20029;-68
2022/01/09 13:20:42;;;;;;;41.08;20.20;;;;;;;;;;5053292;28;20060;-67
2022/01/09 13:23:11;;;;;;;28.15;17.13;;;;;;;;;;5055902;28;20029;-64
2022/01/09 13:25:42;;;;;;;28.58;16.23;;;;;;;;;;5056358;28;20029;-67
2022/01/09 13:28:21;;;;;;;41.00;18.30;;;;;;;;;;5055304;28;20527;-66
2022/01/09 13:30:48;;;;;;;43.53;20.98;;;;;;;;;;5056228;28;20115;-64
2022/01/09 13:33:15;;;;;;;45.40;22.00;;;;;;;;;;5056384;28;20127;-65
2022/01/09 13:35:42;;;;;;;31.17;16.67;;;;;;;;;;5056193;28;20083;-65
2022/01/09 13:38:08;;;;;;;32.90;17.05;;;;;;;;;;5054741;28;20489;-67
2022/01/09 13:40:34;;;;;;;31.85;17.40;;;;;;;;;;5056171;28;20028;-70
2022/01/09 13:43:01;;;;;;;32.33;17.63;;;;;;;;;;5055760;28;20418;-66
2022/01/09 13:45:32;;;;;;;29.02;17.42;;;;;;;;;;5055902;28;20037;-66
2022/01/09 13:47:59;;;;;;;36.95;18.90;;;;;;;;;;5038880;28;20501;-66
2022/01/09 13:50:27;;;;;;;27.58;16.83;;;;;;;;;;5055961;28;20017;-66
2022/01/09 13:52:54;;;;;;;36.60;22.23;;;;;;;;;;5055533;28;20056;-66
2022/01/09 13:55:29;;;;;;;51.45;27.95;;;;;;;;;;5055570;28;20100;-66
2022/01/09 13:57:55;;;;;;;47.95;27.27;;;;;;;;;;5055895;28;20470;-66
2022/01/09 14:00:24;;;;;;;47.25;27.05;;;;;;;;;;5055764;28;20465;-66
2022/01/09 14:02:51;;;;;;;63.17;33.80;;;;;;;;;;5066279;28;20045;-65
2022/01/09 14:05:18;;;;;;;57.95;31.48;;;;;;;;;;5075317;28;20036;-66
2022/01/09 14:07:49;;;;;;;52.95;29.40;;;;;;;;;;5075192;28;20021;-70
2022/01/09 14:10:15;;;;;;;55.90;30.33;;;;;;;;;;5057489;28;20020;-71
2022/01/09 14:12:43;;;;;;;51.95;29.58;;;;;;;;;;5075533;28;20035;-69
2022/01/09 14:15:12;;;;;;;54.95;31.25;;;;;;;;;;5056497;28;20119;-68
2022/01/09 14:17:43;;;;;;;56.08;34.10;;;;;;;;;;5057219;28;20358;-68
2022/01/09 14:20:16;;;;;;;65.47;36.47;;;;;;;;;;5074674;28;20501;-69